createdAt,value
2018-07-21T00:00:55.329Z,5.50
2018-07-21T00:03:25.161Z,5.53
2018-07-21T00:05:54.387Z,5.70
2018-07-21T00:08:24.933Z,6.08
2018-07-21T00:10:55.258Z,5.70
2018-07-21T00:13:25.304Z,5.65
2018-07-21T00:15:54.865Z,5.80
2018-07-21T00:18:27.426Z,5.72
2018-07-21T00:20:56.660Z,6.00
2018-07-21T00:23:27.217Z,5.37
2018-07-21T00:25:58.525Z,5.75
2018-07-21T00:28:28.333Z,5.45
2018-07-21T00:31:02.205Z,5.83
2018-07-21T00:33:33.385Z,5.65
2018-07-21T00:36:03.224Z,5.60
2018-07-21T00:38:39.612Z,5.72
2018-07-21T00:41:12.198Z,6.20
2018-07-21T00:43:43.626Z,5.58
2018-07-21T00:46:22.378Z,5.47
2018-07-21T00:49:00.569Z,5.30
2018-07-21T00:51:43.477Z,5.62
2018-07-21T00:54:22.602Z,5.30
2018-07-21T00:59:45.383Z,5.15
2018-07-21T01:02:18.098Z,5.17
2018-07-21T01:04:56.293Z,5.25
2018-07-21T01:10:07.992Z,5.00
2018-07-21T01:12:46.112Z,4.87
2018-07-21T01:15:17.837Z,5.45
2018-07-21T01:17:53.416Z,5.53
2018-07-21T01:20:29.676Z,5.10
2018-07-21T01:23:01.425Z,5.37
2018-07-21T01:25:30.724Z,5.58
2018-07-21T01:28:10.027Z,5.35
2018-07-21T01:30:45.877Z,5.40
2018-07-21T01:33:15.747Z,5.10
2018-07-21T01:35:45.225Z,5.67
2018-07-21T01:38:16.366Z,5.30
2018-07-21T01:40:45.973Z,5.42
2018-07-21T01:43:15.310Z,5.65
2018-07-21T01:45:47.262Z,6.08
2018-07-21T01:48:16.404Z,6.03
2018-07-21T01:50:45.708Z,6.85
2018-07-21T01:53:15.953Z,6.47
2018-07-21T01:55:45.988Z,6.95
2018-07-21T01:58:15.138Z,6.00
2018-07-21T02:00:46.135Z,6.58
2018-07-21T02:03:17.090Z,7.15
2018-07-21T02:05:48.193Z,7.40
2018-07-21T02:08:17.409Z,8.20
2018-07-21T02:10:46.569Z,8.95
2018-07-21T02:13:18.486Z,9.95
2018-07-21T02:15:48.289Z,10.32
2018-07-21T02:18:18.317Z,11.00
2018-07-21T02:20:48.448Z,11.08
2018-07-21T02:23:20.716Z,11.05
2018-07-21T02:25:51.204Z,11.57
2018-07-21T02:28:21.600Z,11.28
2018-07-21T02:30:50.757Z,12.00
2018-07-21T02:33:21.915Z,9.85
2018-07-21T02:35:51.512Z,11.10
2018-07-21T02:38:21.509Z,10.95
2018-07-21T02:40:52.857Z,11.97
2018-07-21T02:43:22.860Z,10.20
2018-07-21T02:45:53.029Z,10.68
2018-07-21T02:48:28.403Z,10.30
2018-07-21T02:50:59.537Z,11.08
2018-07-21T02:53:33.701Z,12.10
2018-07-21T02:56:05.015Z,11.75
2018-07-21T02:58:35.152Z,11.85
2018-07-21T03:01:07.569Z,11.40
2018-07-21T03:03:39.367Z,11.85
2018-07-21T03:06:10.338Z,11.60
2018-07-21T03:08:42.508Z,11.80
2018-07-21T03:11:13.312Z,11.78
2018-07-21T03:13:49.973Z,11.70
2018-07-21T03:16:21.467Z,11.95
2018-07-21T03:18:55.041Z,12.55
2018-07-21T03:21:25.857Z,12.15
2018-07-21T03:23:57.304Z,12.98
2018-07-21T03:26:27.356Z,12.28
2018-07-21T03:28:56.863Z,11.97
2018-07-21T03:31:28.852Z,12.35
2018-07-21T03:33:58.652Z,12.53
2018-07-21T03:36:31.200Z,13.20
2018-07-21T03:39:03.181Z,13.53
2018-07-21T03:41:36.397Z,12.35
2018-07-21T03:44:11.990Z,13.08
2018-07-21T03:46:42.113Z,13.40
2018-07-21T03:49:16.328Z,12.95
2018-07-21T03:51:49.264Z,13.32
2018-07-21T03:54:19.384Z,13.93
2018-07-21T03:56:51.019Z,12.80
2018-07-21T03:59:25.290Z,11.95
2018-07-21T04:01:55.380Z,12.82
2018-07-21T04:04:28.104Z,12.70
2018-07-21T04:07:07.065Z,13.35
2018-07-21T04:09:38.312Z,12.40
2018-07-21T04:12:09.988Z,12.82
2018-07-21T04:14:43.564Z,13.03
2018-07-21T04:17:20.636Z,13.80
2018-07-21T04:19:55.565Z,13.10
2018-07-21T04:22:26.982Z,13.48
2018-07-21T04:24:56.873Z,12.78
2018-07-21T04:27:32.821Z,13.53
2018-07-21T04:30:06.509Z,13.08
2018-07-21T04:32:37.824Z,13.00
2018-07-21T04:35:07.684Z,13.00
2018-07-21T04:37:40.339Z,13.18
2018-07-21T04:40:10.646Z,12.53
2018-07-21T04:42:41.216Z,12.05
2018-07-21T04:45:11.512Z,12.75
2018-07-21T04:47:45.380Z,11.93
2018-07-21T04:50:16.144Z,11.57
2018-07-21T04:52:46.700Z,11.57
2018-07-21T04:55:16.704Z,11.12
2018-07-21T04:57:47.452Z,11.85
2018-07-21T05:00:19.208Z,11.90
2018-07-21T05:02:50.628Z,11.57
2018-07-21T05:05:24.869Z,11.28
2018-07-21T05:07:57.440Z,11.65
2018-07-21T05:10:29.432Z,11.45
2018-07-21T05:13:00.752Z,11.50
2018-07-21T05:15:31.679Z,11.30
2018-07-21T05:18:03.227Z,10.80
2018-07-21T05:20:35.618Z,10.85
2018-07-21T05:23:06.577Z,10.13
2018-07-21T05:25:39.752Z,10.55
2018-07-21T05:28:10.164Z,9.63
2018-07-21T05:30:44.763Z,10.72
2018-07-21T05:33:18.293Z,9.48
2018-07-21T05:35:49.816Z,9.88
2018-07-21T05:38:19.356Z,8.80
2018-07-21T05:40:49.665Z,9.40
2018-07-21T05:43:25.213Z,9.83
2018-07-21T05:46:01.273Z,9.23
2018-07-21T05:48:36.848Z,9.75
2018-07-21T05:51:12.878Z,9.45
2018-07-21T05:53:44.348Z,10.23
2018-07-21T05:56:16.312Z,10.82
2018-07-21T05:58:47.357Z,10.43
2018-07-21T06:01:19.039Z,10.20
2018-07-21T06:03:49.072Z,9.88
2018-07-21T06:06:19.155Z,10.88
2018-07-21T06:08:54.579Z,10.80
2018-07-21T06:11:28.197Z,10.60
2018-07-21T06:13:59.028Z,10.43
2018-07-21T06:16:30.054Z,11.30
2018-07-21T06:19:02.290Z,10.72
2018-07-21T06:21:34.605Z,11.45
2018-07-21T06:24:05.634Z,11.48
2018-07-21T06:26:37.097Z,10.80
2018-07-21T06:29:09.673Z,10.80
2018-07-21T06:31:41.784Z,10.30
2018-07-21T06:34:14.609Z,10.32
2018-07-21T06:36:46.277Z,10.58
2018-07-21T06:39:17.628Z,10.00
2018-07-21T06:41:47.768Z,10.15
2018-07-21T06:44:19.353Z,9.98
2018-07-21T06:46:50.137Z,10.28
2018-07-21T06:49:20.409Z,9.50
2018-07-21T06:51:51.216Z,9.78
2018-07-21T06:54:23.324Z,9.25
2018-07-21T06:56:56.225Z,9.95
2018-07-21T06:59:26.673Z,9.00
2018-07-21T07:02:06.976Z,9.95
2018-07-21T07:04:40.157Z,9.13
2018-07-21T07:07:11.320Z,9.20
2018-07-21T07:09:40.415Z,9.50
2018-07-21T07:12:12.730Z,8.60
2018-07-21T07:14:43.545Z,9.20
2018-07-21T07:17:13.906Z,7.95
2018-07-21T07:19:55.713Z,8.95
2018-07-21T07:22:27.466Z,9.08
2018-07-21T07:25:00.228Z,7.78
2018-07-21T07:27:33.290Z,7.00
2018-07-21T07:30:06.529Z,7.87
2018-07-21T07:32:37.963Z,7.80
2018-07-21T07:35:11.646Z,8.10
2018-07-21T07:37:49.004Z,8.70
2018-07-21T07:40:28.086Z,8.15
2018-07-21T07:43:03.637Z,7.80
2018-07-21T07:45:37.861Z,8.80
2018-07-21T07:48:09.627Z,7.70
2018-07-21T07:50:41.468Z,7.58
2018-07-21T07:53:16.293Z,8.13
2018-07-21T07:55:48.300Z,8.38
2018-07-21T07:58:22.267Z,7.33
2018-07-21T08:00:53.412Z,7.75
2018-07-21T08:03:25.174Z,8.43
2018-07-21T08:05:58.336Z,8.10
2018-07-21T08:08:30.705Z,7.92
2018-07-21T08:11:01.841Z,8.55
2018-07-21T08:13:31.772Z,7.22
2018-07-21T08:16:01.540Z,8.00
2018-07-21T08:18:33.749Z,7.83
2018-07-21T08:21:04.004Z,8.30
2018-07-21T08:23:40.067Z,7.90
2018-07-21T08:26:12.049Z,7.92
2018-07-21T08:28:42.476Z,7.58
2018-07-21T08:31:12.528Z,8.38
2018-07-21T08:33:43.504Z,8.05
2018-07-21T08:38:51.326Z,8.53
2018-07-21T08:41:23.673Z,7.50
2018-07-21T08:43:59.504Z,8.53
2018-07-21T08:46:32.774Z,8.35
2018-07-21T08:49:04.296Z,8.60
2018-07-21T08:51:34.926Z,8.15
2018-07-21T08:54:07.146Z,7.92
2018-07-21T08:56:36.960Z,7.83
2018-07-21T08:59:07.892Z,7.67
2018-07-21T09:01:38.344Z,7.72
2018-07-21T09:04:08.833Z,8.13
2018-07-21T09:06:41.821Z,7.67
2018-07-21T09:09:13.481Z,8.78
2018-07-21T09:11:44.257Z,9.35
2018-07-21T09:14:14.743Z,8.90
2018-07-21T09:16:44.684Z,8.68
2018-07-21T09:19:14.632Z,8.10
2018-07-21T09:21:44.809Z,8.03
2018-07-21T09:24:16.482Z,8.48
2018-07-21T09:26:50.737Z,8.60
2018-07-21T09:29:22.348Z,8.50
2018-07-21T09:31:52.724Z,7.60
2018-07-21T09:34:27.320Z,7.00
2018-07-21T09:36:58.287Z,7.58
2018-07-21T09:39:29.369Z,6.90
2018-07-21T09:42:02.561Z,6.90
2018-07-21T09:44:34.500Z,7.55
2018-07-21T09:47:05.828Z,7.25
2018-07-21T09:49:43.245Z,6.45
2018-07-21T09:52:19.856Z,5.72
2018-07-21T09:55:01.221Z,5.75
2018-07-21T09:57:42.788Z,5.67
2018-07-21T10:00:28.168Z,6.50
2018-07-21T10:03:16.573Z,6.33
2018-07-21T10:05:57.376Z,6.05
2018-07-21T10:11:19.440Z,5.90
2018-07-21T10:14:08.497Z,6.62
2018-07-21T10:16:43.675Z,5.95
2018-07-21T10:19:17.983Z,5.75
2018-07-21T10:21:51.862Z,6.12
2018-07-21T10:24:33.243Z,5.75
2018-07-21T10:27:13.748Z,5.42
2018-07-21T10:29:45.297Z,5.33
2018-07-21T10:34:56.444Z,5.80
2018-07-21T10:37:26.617Z,5.15
2018-07-21T10:39:55.841Z,5.60
2018-07-21T10:42:29.262Z,6.60
2018-07-21T10:45:01.531Z,5.95
2018-07-21T10:47:42.661Z,6.95
2018-07-21T10:50:12.624Z,6.20
2018-07-21T10:52:41.772Z,7.08
2018-07-21T10:55:10.963Z,6.97
2018-07-21T10:57:40.372Z,6.65
2018-07-21T11:00:09.839Z,6.03
2018-07-21T11:02:40.611Z,6.00
2018-07-21T11:05:09.860Z,5.78
2018-07-21T11:07:39.729Z,5.22
2018-07-21T11:10:08.812Z,5.55
2018-07-21T11:12:37.998Z,4.80
2018-07-21T11:15:10.281Z,4.80
2018-07-21T11:17:43.340Z,4.80
2018-07-21T11:20:13.495Z,5.00
2018-07-21T11:22:43.811Z,4.87
2018-07-21T11:25:13.640Z,4.87
2018-07-21T11:27:43.069Z,4.75
2018-07-21T11:30:12.444Z,4.85
2018-07-21T11:32:41.725Z,4.20
2018-07-21T11:35:14.557Z,4.33
2018-07-21T11:37:44.456Z,4.65
2018-07-21T11:40:14.665Z,4.97
2018-07-21T11:42:43.788Z,4.42
2018-07-21T11:45:14.085Z,4.60
2018-07-21T11:47:45.712Z,4.87
2018-07-21T11:50:20.768Z,5.03
2018-07-21T11:52:54.115Z,4.60
2018-07-21T11:55:27.457Z,4.33
2018-07-21T11:57:56.607Z,4.45
2018-07-21T12:00:26.836Z,4.53
2018-07-21T12:03:05.573Z,4.33
2018-07-21T12:05:34.769Z,4.50
2018-07-21T12:08:05.328Z,4.90
2018-07-21T12:10:38.204Z,4.28
2018-07-21T12:13:13.147Z,4.35
2018-07-21T12:15:46.563Z,4.72
2018-07-21T12:18:16.452Z,5.00
2018-07-21T12:20:51.584Z,4.70
2018-07-21T12:23:24.860Z,4.40
2018-07-21T12:25:57.223Z,4.37
2018-07-21T12:28:32.501Z,4.22
2018-07-21T12:31:07.329Z,3.92
2018-07-21T12:33:39.383Z,4.28
2018-07-21T12:36:12.164Z,4.20
2018-07-21T12:38:46.487Z,4.53
2018-07-21T12:41:20.037Z,3.95
2018-07-21T12:43:56.441Z,4.47
2018-07-21T12:46:28.618Z,4.92
2018-07-21T12:48:58.687Z,4.00
2018-07-21T12:51:32.831Z,4.53
2018-07-21T12:54:04.830Z,4.10
2018-07-21T12:56:35.984Z,3.90
2018-07-21T12:59:06.673Z,4.10
2018-07-21T13:01:38.580Z,4.20
2018-07-21T13:04:09.465Z,3.87
2018-07-21T13:06:42.201Z,3.80
2018-07-21T13:09:14.718Z,3.50
2018-07-21T13:11:50.952Z,3.77
2018-07-21T13:14:22.130Z,3.77
2018-07-21T13:16:53.595Z,3.50
2018-07-21T13:19:24.749Z,3.55
2018-07-21T13:21:54.692Z,4.10
2018-07-21T13:24:25.220Z,3.22
2018-07-21T13:27:02.793Z,3.62
2018-07-21T13:29:34.928Z,3.40
2018-07-21T13:32:06.704Z,4.25
2018-07-21T13:34:37.265Z,4.00
2018-07-21T13:37:09.000Z,4.10
2018-07-21T13:39:45.277Z,3.75
2018-07-21T13:42:22.024Z,3.65
2018-07-21T13:44:57.393Z,3.30
2018-07-21T13:47:28.689Z,3.70
2018-07-21T13:49:58.761Z,3.62
2018-07-21T13:52:29.815Z,3.52
2018-07-21T13:54:59.346Z,3.50
2018-07-21T13:57:30.265Z,3.65
2018-07-21T14:00:01.054Z,3.22
2018-07-21T14:02:32.058Z,3.35
2018-07-21T14:05:01.541Z,3.25
2018-07-21T14:07:34.199Z,3.08
2018-07-21T14:10:08.828Z,3.22
2018-07-21T14:12:39.605Z,2.98
2018-07-21T14:15:10.168Z,3.08
2018-07-21T14:17:40.922Z,2.90
2018-07-21T14:20:12.980Z,3.40
2018-07-21T14:22:44.649Z,3.40
2018-07-21T14:25:16.451Z,3.72
2018-07-21T14:27:48.059Z,3.55
2018-07-21T14:30:19.620Z,3.60
2018-07-21T14:32:49.549Z,3.35
2018-07-21T14:35:19.590Z,3.62
2018-07-21T14:37:48.887Z,3.75
2018-07-21T14:40:18.268Z,3.72
2018-07-21T14:42:48.160Z,3.72
2018-07-21T14:45:19.320Z,3.67
2018-07-21T14:47:50.392Z,4.10
2018-07-21T14:50:20.340Z,3.92
2018-07-21T14:52:51.083Z,3.98
2018-07-21T14:55:22.159Z,4.30
2018-07-21T14:57:56.130Z,3.90
2018-07-21T15:00:30.865Z,3.80
2018-07-21T15:03:01.098Z,4.15
2018-07-21T15:05:32.333Z,4.20
2018-07-21T15:08:04.189Z,3.72
2018-07-21T15:10:36.154Z,4.30
2018-07-21T15:13:06.065Z,4.90
2018-07-21T15:15:37.646Z,4.90
2018-07-21T15:18:11.316Z,5.40
2018-07-21T15:20:45.650Z,4.47
2018-07-21T15:23:15.764Z,5.25
2018-07-21T15:25:46.308Z,5.53
2018-07-21T15:28:17.832Z,4.95
2018-07-21T15:30:48.701Z,5.47
2018-07-21T15:33:22.895Z,4.83
2018-07-21T15:35:55.786Z,5.10
2018-07-21T15:38:27.442Z,5.72
2018-07-21T15:40:58.395Z,5.65
2018-07-21T15:43:27.880Z,5.05
2018-07-21T15:46:00.773Z,5.58
2018-07-21T15:48:34.863Z,5.40
2018-07-21T15:51:07.416Z,5.08
2018-07-21T15:53:38.325Z,4.97
2018-07-21T15:56:08.127Z,4.25
2018-07-21T15:58:41.281Z,4.70
2018-07-21T16:01:13.472Z,5.33
2018-07-21T16:03:48.329Z,10.00
2018-07-21T16:06:18.313Z,7.55
2018-07-21T16:08:54.732Z,9.10
2018-07-21T16:11:28.794Z,11.18
2018-07-21T16:14:04.752Z,21.73
2018-07-21T16:16:43.633Z,15.03
2018-07-21T16:19:19.376Z,16.20
2018-07-21T16:21:55.180Z,16.60
2018-07-21T16:24:32.489Z,13.75
2018-07-21T16:27:05.535Z,11.97
2018-07-21T16:29:36.144Z,15.48
2018-07-21T16:32:13.888Z,15.03
2018-07-21T16:34:49.119Z,13.60
2018-07-21T16:37:20.333Z,14.90
2018-07-21T16:39:54.875Z,13.95
2018-07-21T16:42:27.864Z,13.48
2018-07-21T16:45:06.105Z,10.63
2018-07-21T16:47:36.732Z,10.10
2018-07-21T16:50:10.132Z,10.98
2018-07-21T16:52:41.861Z,8.73
2018-07-21T16:55:13.152Z,10.40
2018-07-21T16:57:44.997Z,10.50
2018-07-21T17:00:15.997Z,10.68
2018-07-21T17:02:46.256Z,11.93
2018-07-21T17:05:20.360Z,12.47
2018-07-21T17:07:54.343Z,11.95
2018-07-21T17:10:28.456Z,11.53
2018-07-21T17:13:00.924Z,10.38
2018-07-21T17:15:38.238Z,9.03
2018-07-21T17:18:13.017Z,8.50
2018-07-21T17:20:43.925Z,8.73
2018-07-21T17:23:15.125Z,9.95
2018-07-21T17:25:49.485Z,9.80
2018-07-21T17:28:19.097Z,9.18
2018-07-21T17:30:56.050Z,8.58
2018-07-21T17:33:26.710Z,7.85
2018-07-21T17:35:56.597Z,7.87
2018-07-21T17:38:28.825Z,8.10
2018-07-21T17:41:01.168Z,8.88
2018-07-21T17:43:32.065Z,8.70
2018-07-21T17:46:02.132Z,9.35
2018-07-21T17:48:32.954Z,9.25
2018-07-21T17:51:02.952Z,8.95
2018-07-21T17:53:33.609Z,8.45
2018-07-21T17:58:41.737Z,9.68
2018-07-21T18:01:13.004Z,9.03
2018-07-21T18:03:43.483Z,9.83
2018-07-21T18:06:19.665Z,10.32
2018-07-21T18:08:50.691Z,10.68
2018-07-21T18:11:21.324Z,9.90
2018-07-21T18:13:52.428Z,9.05
2018-07-21T18:16:22.679Z,10.00
2018-07-21T18:18:51.753Z,10.13
2018-07-21T18:21:24.412Z,10.28
2018-07-21T18:23:55.973Z,10.18
2018-07-21T18:26:28.918Z,8.70
2018-07-21T18:28:58.424Z,9.63
2018-07-21T18:31:27.862Z,8.78
2018-07-21T18:33:58.823Z,9.08
2018-07-21T18:36:29.554Z,9.30
2018-07-21T18:38:59.669Z,8.60
2018-07-21T18:41:31.288Z,7.87
2018-07-21T18:44:06.177Z,7.17
2018-07-21T18:46:37.313Z,8.38
2018-07-21T18:49:09.665Z,5.60
2018-07-21T18:51:40.540Z,5.87
2018-07-21T18:54:11.756Z,5.50
2018-07-21T18:56:44.699Z,5.70
2018-07-21T18:59:17.732Z,5.00
2018-07-21T19:01:48.625Z,5.35
2018-07-21T19:09:57.212Z,5.70
2018-07-21T19:12:36.716Z,5.37
2018-07-21T19:15:23.243Z,4.62
2018-07-21T19:17:56.659Z,4.40
2018-07-21T19:20:39.679Z,4.47
2018-07-21T19:23:15.872Z,4.67
2018-07-21T19:25:55.814Z,4.87
2018-07-21T19:28:30.536Z,4.37
2018-07-21T19:31:08.832Z,4.62
2018-07-21T19:33:57.945Z,4.00
2018-07-21T19:36:38.033Z,4.10
2018-07-21T19:39:12.276Z,4.65
2018-07-21T19:41:57.930Z,4.85
2018-07-21T19:44:35.689Z,4.10
2018-07-21T19:47:09.317Z,4.58
2018-07-21T19:49:39.648Z,4.42
2018-07-21T19:52:15.808Z,4.70
2018-07-21T19:54:47.156Z,5.15
2018-07-21T19:57:19.477Z,4.90
2018-07-21T19:59:48.639Z,5.45
2018-07-21T20:02:17.769Z,5.42
2018-07-21T20:04:47.224Z,4.75
2018-07-21T20:07:16.371Z,4.65
2018-07-21T20:09:45.520Z,4.90
2018-07-21T20:12:14.963Z,4.47
2018-07-21T20:14:44.040Z,3.87
2018-07-21T20:17:13.289Z,3.33
2018-07-21T20:19:43.418Z,3.80
2018-07-21T20:22:12.969Z,3.65
2018-07-21T20:24:42.112Z,3.47
2018-07-21T20:27:10.990Z,3.00
2018-07-21T20:29:39.830Z,3.35
2018-07-21T20:32:10.597Z,3.80
2018-07-21T20:34:40.384Z,3.70
2018-07-21T20:37:09.520Z,3.15
2018-07-21T20:39:40.442Z,3.15
2018-07-21T20:42:09.961Z,3.27
2018-07-21T20:44:39.480Z,3.33
2018-07-21T20:47:10.152Z,3.10
2018-07-21T20:49:40.192Z,3.27
2018-07-21T20:52:10.637Z,3.10
2018-07-21T20:54:40.160Z,2.85
2018-07-21T20:57:11.512Z,2.80
2018-07-21T20:59:40.953Z,2.98
2018-07-21T21:02:20.274Z,2.87
2018-07-21T21:04:50.817Z,2.90
2018-07-21T21:07:24.217Z,2.70
2018-07-21T21:09:59.050Z,3.08
2018-07-21T21:12:29.679Z,2.90
2018-07-21T21:15:00.577Z,3.10
2018-07-21T21:17:32.829Z,2.98
2018-07-21T21:20:03.207Z,3.17
2018-07-21T21:22:32.945Z,2.95
2018-07-21T21:25:03.817Z,3.02
2018-07-21T21:27:34.504Z,3.10
2018-07-21T21:30:06.253Z,3.60
2018-07-21T21:32:37.641Z,3.58
2018-07-21T21:35:07.315Z,3.40
2018-07-21T21:37:41.388Z,3.33
2018-07-21T21:40:10.868Z,3.20
2018-07-21T21:42:42.244Z,3.37
2018-07-21T21:45:13.424Z,3.37
2018-07-21T21:47:43.771Z,3.40
2018-07-21T21:50:19.545Z,3.50
2018-07-21T21:52:50.170Z,3.47
2018-07-21T21:55:21.624Z,3.25
2018-07-21T21:57:53.539Z,3.55
2018-07-21T22:00:25.328Z,3.55
2018-07-21T22:02:55.656Z,3.22
2018-07-21T22:05:27.319Z,3.10
2018-07-21T22:07:58.052Z,3.20
2018-07-21T22:10:30.035Z,3.50
2018-07-21T22:12:59.428Z,2.80
2018-07-21T22:15:29.610Z,2.90
2018-07-21T22:17:59.956Z,2.80
2018-07-21T22:20:30.948Z,3.05
2018-07-21T22:23:01.530Z,3.20
2018-07-21T22:25:34.924Z,3.42
2018-07-21T22:28:06.819Z,3.25
2018-07-21T22:30:43.036Z,3.33
2018-07-21T22:33:13.581Z,3.17
2018-07-21T22:35:46.148Z,3.20
2018-07-21T22:38:18.357Z,3.65
2018-07-21T22:40:52.284Z,3.30
2018-07-21T22:43:25.484Z,3.25
2018-07-21T22:45:55.721Z,3.33
2018-07-21T22:48:26.593Z,3.25
2018-07-21T22:50:58.140Z,3.80
2018-07-21T22:53:28.079Z,3.30
2018-07-21T22:56:02.965Z,3.50
2018-07-21T22:58:35.439Z,3.70
2018-07-21T23:01:07.244Z,3.75
2018-07-21T23:03:37.339Z,3.85
2018-07-21T23:06:11.875Z,3.45
2018-07-21T23:08:41.766Z,3.60
2018-07-21T23:11:12.794Z,3.90
2018-07-21T23:13:44.668Z,3.40
2018-07-21T23:16:16.324Z,3.50
2018-07-21T23:18:45.814Z,3.47
2018-07-21T23:21:15.845Z,3.75
2018-07-21T23:23:45.913Z,3.55
2018-07-21T23:26:16.215Z,3.80
2018-07-21T23:28:50.541Z,3.80
2018-07-21T23:31:21.641Z,3.65
2018-07-21T23:33:53.398Z,3.80
2018-07-21T23:36:23.411Z,3.87
2018-07-21T23:39:01.825Z,3.42
2018-07-21T23:41:31.655Z,3.95
2018-07-21T23:44:06.711Z,3.77
2018-07-21T23:46:38.857Z,3.55
2018-07-21T23:49:09.894Z,3.92
2018-07-21T23:51:46.971Z,3.95
2018-07-21T23:54:18.597Z,3.72
2018-07-21T23:56:48.955Z,3.33
2018-07-21T23:59:19.246Z,3.72
